Tonopah, NV

12:36 AM PDT on July 28, 2016 (GMT -0700)
Tonopah | | Change Station
Active Advisory: Heat Advisory

Elev 5427 ft 38.05 °N, 117.09 °W | Updated 40 minutes ago

Clear
Clear
82 °F
Feels Like 82 °F
N
7
Wind Variable Wind from ESE

Today
High -- | Low -- °F
--% Chance of Precip.
Yesterday
High -- | Low -- °F
Precip. -- in
Pressure 29.82 in
Visibility 10.0 miles
Clouds Clear
Dew Point 36 °F
Humidity 19%
Rainfall 0.00 in
Snow Depth Not available.
5:48 AM 8:01 PM
Waning Crescent, 35% visible
METAR KTPH 280656Z AUTO 12006KT 10SM CLR 28/02 A3015 RMK AO2 SLP098 T02780022
Pressure 29.82 in
Visibility 10.0 miles
Clouds Clear
Dew Point 36 °F
Humidity 19%
Rainfall 0.00 in
Snow Depth Not available.
5:48 AM 8:01 PM
Waning Crescent, 35% visible
METAR KTPH 280656Z AUTO 12006KT 10SM CLR 28/02 A3015 RMK AO2 SLP098 T02780022

10-Day Weather Forecast

Almanac

Astronomy

Jul. 28, 2016 Rise Set
Actual Time
Civil Twilight
Nautical Twilight
Astronomical Twilight
Moon
Length of Visible Light
Length of Day
Tomorrow will be .
, % of the Moon is Illuminated

Today's Extremes

State Highs State Lows

Community

WunderPhotos

Upload Photos

1,928,070 photos uploaded!

WunderBlog® & News

Nearby

Air Quality

  Air Quality AQ Index Pollutant
Not available.

Snow Depth

Station Depth Elevation

Earthquake Activity

City Distance Mag. Time & Date
Minimum magnitude displayed is 2.5.

Coastal Water Temperatures

Place Temperature

Stations

Nearby Weather Stations

Station Location Temp. Windchill Dew Point Humidity Wind Precip. Elev Updated Type
                   

Watches & Warnings

Heat Advisory
Issued: 6:31 PM PDT Jul. 27, 2016 – National Weather Service

... Heat advisory remains in effect until 5 PM PDT Friday...

* temperature... 98 to 104 degrees each afternoon through Friday.

* Impacts... temperatures in this range are unusual and
prolonged exposure without relief or frequent hydration
could lead to heat stroke.

Precautionary/preparedness actions...

Take extra precautions if you work or spend time outside. When
possible... reschedule strenuous activities to early morning or
evening. Know the signs and symptoms of heat exhaustion and heat
stroke. Wear light weight and loose fitting clothing when
possible and drink plenty of water.

To reduce risk during outdoor work... the occupational safety and
health administration recommends scheduling frequent rest breaks
in shaded or air conditioned environments. Anyone overcome by
heat should be moved to a cool and shaded location. Heat stroke
is an emergency - call 911.